sensor_id;sensor_type;location;lat;lon;timestamp;temperature;humidity
28837;DHT22;50669;50.982;11.022;2022-12-16T00:02:06;-6.60;99.90
28837;DHT22;50669;50.982;11.022;2022-12-16T00:04:37;-6.50;99.90
28837;DHT22;50669;50.982;11.022;2022-12-16T00:07:05;-6.70;99.90
28837;DHT22;50669;50.982;11.022;2022-12-16T00:09:33;-6.80;99.90
28837;DHT22;50669;50.982;11.022;2022-12-16T00:11:58;-6.90;99.90
28837;DHT22;50669;50.982;11.022;2022-12-16T00:14:24;-6.90;99.90
28837;DHT22;50669;50.982;11.022;2022-12-16T00:16:51;-7.00;99.90
28837;DHT22;50669;50.982;11.022;2022-12-16T00:19:17;-7.00;99.90
28837;DHT22;50669;50.982;11.022;2022-12-16T00:21:43;-7.10;99.90
28837;DHT22;50669;50.982;11.022;2022-12-16T00:24:08;-7.10;99.90
28837;DHT22;50669;50.982;11.022;2022-12-16T00:26:34;-7.00;99.90
28837;DHT22;50669;50.982;11.022;2022-12-16T00:29:02;-7.00;99.90
28837;DHT22;50669;50.982;11.022;2022-12-16T00:31:30;-7.10;99.90
28837;DHT22;50669;50.982;11.022;2022-12-16T00:33:56;-7.20;99.90
28837;DHT22;50669;50.982;11.022;2022-12-16T00:36:24;-7.10;99.90
28837;DHT22;50669;50.982;11.022;2022-12-16T00:38:53;-7.10;99.90
28837;DHT22;50669;50.982;11.022;2022-12-16T00:41:21;-7.10;99.90
28837;DHT22;50669;50.982;11.022;2022-12-16T00:43:47;-7.20;99.90
28837;DHT22;50669;50.982;11.022;2022-12-16T00:46:12;-7.10;99.90
28837;DHT22;50669;50.982;11.022;2022-12-16T00:48:41;-7.10;99.90
28837;DHT22;50669;50.982;11.022;2022-12-16T00:51:07;-7.10;99.90
28837;DHT22;50669;50.982;11.022;2022-12-16T00:53:32;-7.10;99.90
28837;DHT22;50669;50.982;11.022;2022-12-16T00:56:12;-7.10;99.90
28837;DHT22;50669;50.982;11.022;2022-12-16T00:58:43;-7.10;99.90
28837;DHT22;50669;50.982;11.022;2022-12-16T01:01:11;-7.10;99.90
28837;DHT22;50669;50.982;11.022;2022-12-16T01:03:36;-7.20;99.90
28837;DHT22;50669;50.982;11.022;2022-12-16T01:06:14;-7.20;99.90
28837;DHT22;50669;50.982;11.022;2022-12-16T01:08:41;-7.20;99.90
28837;DHT22;50669;50.982;11.022;2022-12-16T01:11:13;-7.20;99.90
28837;DHT22;50669;50.982;11.022;2022-12-16T01:13:40;-7.20;99.90
28837;DHT22;50669;50.982;11.022;2022-12-16T01:16:08;-7.20;99.90
28837;DHT22;50669;50.982;11.022;2022-12-16T01:18:34;-7.30;99.90
28837;DHT22;50669;50.982;11.022;2022-12-16T01:21:05;-7.30;99.90
28837;DHT22;50669;50.982;11.022;2022-12-16T01:23:33;-7.40;99.90
28837;DHT22;50669;50.982;11.022;2022-12-16T01:25:59;-7.40;99.90
28837;DHT22;50669;50.982;11.022;2022-12-16T01:28:28;-7.40;99.90
28837;DHT22;50669;50.982;11.022;2022-12-16T01:31:00;-7.40;99.90
28837;DHT22;50669;50.982;11.022;2022-12-16T01:33:31;-7.40;99.90
28837;DHT22;50669;50.982;11.022;2022-12-16T01:36:04;-7.40;99.90
28837;DHT22;50669;50.982;11.022;2022-12-16T01:38:31;-7.40;99.90
28837;DHT22;50669;50.982;11.022;2022-12-16T01:40:59;-7.40;99.90
28837;DHT22;50669;50.982;11.022;2022-12-16T01:43:30;-7.40;99.90
28837;DHT22;50669;50.982;11.022;2022-12-16T01:46:07;-7.30;99.90
28837;DHT22;50669;50.982;11.022;2022-12-16T01:48:57;-7.30;99.90
28837;DHT22;50669;50.982;11.022;2022-12-16T01:51:36;-7.40;99.90
28837;DHT22;50669;50.982;11.022;2022-12-16T01:54:30;-7.40;99.90
28837;DHT22;50669;50.982;11.022;2022-12-16T01:57:05;-7.40;99.90
28837;DHT22;50669;50.982;11.022;2022-12-16T01:59:35;-7.40;99.90
28837;DHT22;50669;50.982;11.022;2022-12-16T02:02:03;-7.40;99.90
28837;DHT22;50669;50.982;11.022;2022-12-16T02:04:31;-7.40;99.90
28837;DHT22;50669;50.982;11.022;2022-12-16T02:07:02;-7.40;99.90
28837;DHT22;50669;50.982;11.022;2022-12-16T02:09:30;-7.40;99.90
28837;DHT22;50669;50.982;11.022;2022-12-16T02:12:21;-7.40;99.90
28837;DHT22;50669;50.982;11.022;2022-12-16T02:17:44;-7.40;99.90
28837;DHT22;50669;50.982;11.022;2022-12-16T02:20:26;-7.40;99.90
28837;DHT22;50669;50.982;11.022;2022-12-16T02:28:51;-7.40;99.90
28837;DHT22;50669;50.982;11.022;2022-12-16T02:32:13;-7.40;99.90
28837;DHT22;50669;50.982;11.022;2022-12-16T02:34:26;-7.40;99.90
28837;DHT22;50669;50.982;11.022;2022-12-16T02:39:41;-7.50;99.90
28837;DHT22;50669;50.982;11.022;2022-12-16T02:42:31;-7.60;99.90
28837;DHT22;50669;50.982;11.022;2022-12-16T02:45:12;-7.60;99.90
28837;DHT22;50669;50.982;11.022;2022-12-16T02:47:40;-7.60;99.90
28837;DHT22;50669;50.982;11.022;2022-12-16T02:50:19;-7.60;99.90
28837;DHT22;50669;50.982;11.022;2022-12-16T02:52:49;-7.60;99.90
28837;DHT22;50669;50.982;11.022;2022-12-16T02:55:17;-7.60;99.90
28837;DHT22;50669;50.982;11.022;2022-12-16T02:58:09;-7.60;99.90
28837;DHT22;50669;50.982;11.022;2022-12-16T03:03:51;-7.50;99.90
28837;DHT22;50669;50.982;11.022;2022-12-16T03:06:20;-7.50;99.90
28837;DHT22;50669;50.982;11.022;2022-12-16T03:08:52;-7.60;99.90
28837;DHT22;50669;50.982;11.022;2022-12-16T03:11:19;-7.60;99.90
28837;DHT22;50669;50.982;11.022;2022-12-16T03:13:49;-7.70;99.90
28837;DHT22;50669;50.982;11.022;2022-12-16T03:16:18;-7.70;99.90
28837;DHT22;50669;50.982;11.022;2022-12-16T03:18:47;-7.80;99.90
28837;DHT22;50669;50.982;11.022;2022-12-16T03:21:15;-7.80;99.90
28837;DHT22;50669;50.982;11.022;2022-12-16T03:24:04;-7.80;99.90
28837;DHT22;50669;50.982;11.022;2022-12-16T03:37:38;-7.80;99.90
28837;DHT22;50669;50.982;11.022;2022-12-16T03:40:08;-7.90;99.90
28837;DHT22;50669;50.982;11.022;2022-12-16T03:42:36;-7.90;99.90
28837;DHT22;50669;50.982;11.022;2022-12-16T03:45:06;-7.90;99.90
28837;DHT22;50669;50.982;11.022;2022-12-16T03:47:33;-7.90;99.90
28837;DHT22;50669;50.982;11.022;2022-12-16T03:50:01;-7.90;99.90
28837;DHT22;50669;50.982;11.022;2022-12-16T03:52:27;-7.80;99.90
28837;DHT22;50669;50.982;11.022;2022-12-16T03:54:56;-7.80;99.90
28837;DHT22;50669;50.982;11.022;2022-12-16T03:57:23;-7.80;99.90
28837;DHT22;50669;50.982;11.022;2022-12-16T03:59:51;-7.80;99.90
28837;DHT22;50669;50.982;11.022;2022-12-16T04:02:17;-7.90;99.90
28837;DHT22;50669;50.982;11.022;2022-12-16T04:04:43;-7.80;99.90
28837;DHT22;50669;50.982;11.022;2022-12-16T04:07:08;-7.80;99.90
28837;DHT22;50669;50.982;11.022;2022-12-16T04:09:49;-7.70;99.90
28837;DHT22;50669;50.982;11.022;2022-12-16T04:12:19;-7.70;99.90
28837;DHT22;50669;50.982;11.022;2022-12-16T04:15:04;-7.70;99.90
28837;DHT22;50669;50.982;11.022;2022-12-16T04:17:51;-7.70;99.90
28837;DHT22;50669;50.982;11.022;2022-12-16T04:20:38;-7.60;99.90
28837;DHT22;50669;50.982;11.022;2022-12-16T04:23:25;-7.70;99.90
28837;DHT22;50669;50.982;11.022;2022-12-16T04:26:10;-7.80;99.90
28837;DHT22;50669;50.982;11.022;2022-12-16T04:28:36;-7.70;99.90
28837;DHT22;50669;50.982;11.022;2022-12-16T04:31:04;-7.70;99.90
28837;DHT22;50669;50.982;11.022;2022-12-16T04:33:30;-7.70;99.90
28837;DHT22;50669;50.982;11.022;2022-12-16T04:36:14;-7.70;99.90
28837;DHT22;50669;50.982;11.022;2022-12-16T04:38:58;-7.60;99.90
28837;DHT22;50669;50.982;11.022;2022-12-16T04:41:45;-7.60;99.90
28837;DHT22;50669;50.982;11.022;2022-12-16T04:44:29;-7.60;99.90
28837;DHT22;50669;50.982;11.022;2022-12-16T04:47:13;-7.60;99.90
28837;DHT22;50669;50.982;11.022;2022-12-16T04:49:57;-7.60;99.90
28837;DHT22;50669;50.982;11.022;2022-12-16T04:52:41;-7.60;99.90
28837;DHT22;50669;50.982;11.022;2022-12-16T04:55:25;-7.60;99.90
28837;DHT22;50669;50.982;11.022;2022-12-16T04:58:11;-7.50;99.90
28837;DHT22;50669;50.982;11.022;2022-12-16T05:00:55;-7.50;99.90
28837;DHT22;50669;50.982;11.022;2022-12-16T05:03:40;-7.50;99.90
28837;DHT22;50669;50.982;11.022;2022-12-16T05:06:24;-7.50;99.90
28837;DHT22;50669;50.982;11.022;2022-12-16T05:09:08;-7.50;99.90
28837;DHT22;50669;50.982;11.022;2022-12-16T05:11:52;-7.50;99.90
28837;DHT22;50669;50.982;11.022;2022-12-16T05:14:36;-7.40;99.90
28837;DHT22;50669;50.982;11.022;2022-12-16T05:17:20;-7.40;99.90
28837;DHT22;50669;50.982;11.022;2022-12-16T05:20:05;-7.40;99.90
28837;DHT22;50669;50.982;11.022;2022-12-16T05:22:50;-7.50;99.90
28837;DHT22;50669;50.982;11.022;2022-12-16T05:25:34;-7.60;99.90
28837;DHT22;50669;50.982;11.022;2022-12-16T05:28:21;-7.60;99.90
28837;DHT22;50669;50.982;11.022;2022-12-16T05:31:07;-7.60;99.90
28837;DHT22;50669;50.982;11.022;2022-12-16T05:33:56;-7.70;99.90
28837;DHT22;50669;50.982;11.022;2022-12-16T05:36:40;-7.70;99.90
28837;DHT22;50669;50.982;11.022;2022-12-16T05:39:24;-7.70;99.90
28837;DHT22;50669;50.982;11.022;2022-12-16T05:42:08;-7.80;99.90
28837;DHT22;50669;50.982;11.022;2022-12-16T05:44:52;-7.70;99.90
28837;DHT22;50669;50.982;11.022;2022-12-16T05:47:37;-7.60;99.90
28837;DHT22;50669;50.982;11.022;2022-12-16T05:50:24;-7.60;99.90
28837;DHT22;50669;50.982;11.022;2022-12-16T05:53:08;-7.70;99.90
28837;DHT22;50669;50.982;11.022;2022-12-16T05:55:53;-7.60;99.90
28837;DHT22;50669;50.982;11.022;2022-12-16T05:58:37;-7.70;99.90
28837;DHT22;50669;50.982;11.022;2022-12-16T06:01:21;-7.70;99.90
28837;DHT22;50669;50.982;11.022;2022-12-16T06:04:05;-7.70;99.90
28837;DHT22;50669;50.982;11.022;2022-12-16T06:06:49;-7.70;99.90
28837;DHT22;50669;50.982;11.022;2022-12-16T06:09:33;-7.80;99.90
28837;DHT22;50669;50.982;11.022;2022-12-16T06:12:20;-7.80;99.90
28837;DHT22;50669;50.982;11.022;2022-12-16T06:15:07;-7.90;99.90
28837;DHT22;50669;50.982;11.022;2022-12-16T06:17:51;-8.00;99.90
28837;DHT22;50669;50.982;11.022;2022-12-16T06:20:36;-8.10;99.90
28837;DHT22;50669;50.982;11.022;2022-12-16T06:23:22;-8.20;99.90
28837;DHT22;50669;50.982;11.022;2022-12-16T06:26:06;-8.30;99.90
28837;DHT22;50669;50.982;11.022;2022-12-16T06:28:50;-8.30;99.90
28837;DHT22;50669;50.982;11.022;2022-12-16T06:31:37;-8.30;99.90
28837;DHT22;50669;50.982;11.022;2022-12-16T06:34:23;-8.40;99.90
28837;DHT22;50669;50.982;11.022;2022-12-16T06:37:08;-8.40;99.90
28837;DHT22;50669;50.982;11.022;2022-12-16T06:39:52;-8.50;99.90
28837;DHT22;50669;50.982;11.022;2022-12-16T06:42:39;-8.50;99.90
28837;DHT22;50669;50.982;11.022;2022-12-16T06:45:24;-8.50;99.90
28837;DHT22;50669;50.982;11.022;2022-12-16T06:48:10;-8.50;99.90
28837;DHT22;50669;50.982;11.022;2022-12-16T06:50:54;-8.50;99.90
28837;DHT22;50669;50.982;11.022;2022-12-16T06:53:38;-8.50;99.90
28837;DHT22;50669;50.982;11.022;2022-12-16T06:56:22;-8.50;99.90
28837;DHT22;50669;50.982;11.022;2022-12-16T06:59:06;-8.60;99.90
28837;DHT22;50669;50.982;11.022;2022-12-16T07:01:50;-8.60;99.90
28837;DHT22;50669;50.982;11.022;2022-12-16T07:04:37;-8.50;99.90
28837;DHT22;50669;50.982;11.022;2022-12-16T07:07:21;-8.50;99.90
28837;DHT22;50669;50.982;11.022;2022-12-16T07:10:10;-8.50;99.90
28837;DHT22;50669;50.982;11.022;2022-12-16T07:12:59;-8.50;99.90
28837;DHT22;50669;50.982;11.022;2022-12-16T07:15:44;-8.50;99.90
28837;DHT22;50669;50.982;11.022;2022-12-16T07:18:31;-8.40;99.90
28837;DHT22;50669;50.982;11.022;2022-12-16T07:21:15;-8.50;99.90
28837;DHT22;50669;50.982;11.022;2022-12-16T07:24:02;-8.50;99.90
28837;DHT22;50669;50.982;11.022;2022-12-16T07:26:46;-8.40;99.90
28837;DHT22;50669;50.982;11.022;2022-12-16T07:29:30;-8.40;99.90
28837;DHT22;50669;50.982;11.022;2022-12-16T07:32:14;-8.30;99.90
28837;DHT22;50669;50.982;11.022;2022-12-16T07:34:59;-8.30;99.90
28837;DHT22;50669;50.982;11.022;2022-12-16T07:37:43;-8.20;99.90
28837;DHT22;50669;50.982;11.022;2022-12-16T07:40:29;-8.10;99.90
28837;DHT22;50669;50.982;11.022;2022-12-16T07:43:13;-8.10;99.90
28837;DHT22;50669;50.982;11.022;2022-12-16T07:45:57;-8.00;99.90
28837;DHT22;50669;50.982;11.022;2022-12-16T07:48:41;-8.00;99.90
28837;DHT22;50669;50.982;11.022;2022-12-16T07:51:25;-7.90;99.90
28837;DHT22;50669;50.982;11.022;2022-12-16T07:54:09;-7.90;99.90
28837;DHT22;50669;50.982;11.022;2022-12-16T07:56:53;-7.80;99.90
28837;DHT22;50669;50.982;11.022;2022-12-16T07:59:37;-7.80;99.90
28837;DHT22;50669;50.982;11.022;2022-12-16T08:02:35;-7.80;99.90
28837;DHT22;50669;50.982;11.022;2022-12-16T08:05:19;-7.70;99.90
28837;DHT22;50669;50.982;11.022;2022-12-16T08:08:04;-7.70;99.90
28837;DHT22;50669;50.982;11.022;2022-12-16T08:10:50;-7.60;99.90
28837;DHT22;50669;50.982;11.022;2022-12-16T08:13:36;-7.60;99.90
28837;DHT22;50669;50.982;11.022;2022-12-16T08:16:21;-7.60;99.90
28837;DHT22;50669;50.982;11.022;2022-12-16T08:19:05;-7.60;99.90
28837;DHT22;50669;50.982;11.022;2022-12-16T08:21:49;-7.60;99.90
28837;DHT22;50669;50.982;11.022;2022-12-16T08:24:33;-7.60;99.90
28837;DHT22;50669;50.982;11.022;2022-12-16T08:27:17;-7.60;99.90
28837;DHT22;50669;50.982;11.022;2022-12-16T08:30:05;-7.50;99.90
28837;DHT22;50669;50.982;11.022;2022-12-16T08:32:52;-7.40;99.90
28837;DHT22;50669;50.982;11.022;2022-12-16T08:35:36;-7.30;99.90
28837;DHT22;50669;50.982;11.022;2022-12-16T08:38:20;-7.00;99.90
28837;DHT22;50669;50.982;11.022;2022-12-16T08:41:04;-7.00;99.90
28837;DHT22;50669;50.982;11.022;2022-12-16T08:43:48;-7.00;99.90
28837;DHT22;50669;50.982;11.022;2022-12-16T08:46:32;-7.00;99.90
28837;DHT22;50669;50.982;11.022;2022-12-16T08:49:16;-6.90;99.90
28837;DHT22;50669;50.982;11.022;2022-12-16T08:52:05;-6.80;99.90
28837;DHT22;50669;50.982;11.022;2022-12-16T08:54:49;-6.70;99.90
28837;DHT22;50669;50.982;11.022;2022-12-16T08:57:35;-6.60;99.90
28837;DHT22;50669;50.982;11.022;2022-12-16T09:00:20;-6.50;99.90
28837;DHT22;50669;50.982;11.022;2022-12-16T09:03:04;-6.40;99.90
28837;DHT22;50669;50.982;11.022;2022-12-16T09:05:48;-6.40;99.90
28837;DHT22;50669;50.982;11.022;2022-12-16T09:08:32;-6.40;99.90
28837;DHT22;50669;50.982;11.022;2022-12-16T09:11:16;-6.40;99.90
28837;DHT22;50669;50.982;11.022;2022-12-16T09:14:02;-6.30;99.90
28837;DHT22;50669;50.982;11.022;2022-12-16T09:16:49;-6.30;99.90
28837;DHT22;50669;50.982;11.022;2022-12-16T09:19:33;-6.20;99.90
28837;DHT22;50669;50.982;11.022;2022-12-16T09:22:17;-6.10;99.90
28837;DHT22;50669;50.982;11.022;2022-12-16T09:25:18;-5.90;99.90
28837;DHT22;50669;50.982;11.022;2022-12-16T09:28:02;-5.80;99.90
28837;DHT22;50669;50.982;11.022;2022-12-16T09:30:47;-5.70;99.90
28837;DHT22;50669;50.982;11.022;2022-12-16T09:33:33;-5.70;99.90
28837;DHT22;50669;50.982;11.022;2022-12-16T09:36:17;-5.70;99.90
28837;DHT22;50669;50.982;11.022;2022-12-16T09:39:04;-5.60;99.90
28837;DHT22;50669;50.982;11.022;2022-12-16T09:45:31;-5.40;99.90
28837;DHT22;50669;50.982;11.022;2022-12-16T09:48:32;-5.30;99.90
28837;DHT22;50669;50.982;11.022;2022-12-16T09:51:19;-5.20;99.90
28837;DHT22;50669;50.982;11.022;2022-12-16T09:54:04;-5.10;99.90
28837;DHT22;50669;50.982;11.022;2022-12-16T09:56:53;-4.90;99.90
28837;DHT22;50669;50.982;11.022;2022-12-16T09:59:40;-5.00;99.90
28837;DHT22;50669;50.982;11.022;2022-12-16T10:02:25;-5.00;99.90
28837;DHT22;50669;50.982;11.022;2022-12-16T10:05:17;-5.00;99.90
28837;DHT22;50669;50.982;11.022;2022-12-16T10:08:26;-4.90;99.90
28837;DHT22;50669;50.982;11.022;2022-12-16T10:11:22;-5.00;99.90
28837;DHT22;50669;50.982;11.022;2022-12-16T10:14:18;-5.10;99.90
28837;DHT22;50669;50.982;11.022;2022-12-16T10:17:11;-5.00;99.90
28837;DHT22;50669;50.982;11.022;2022-12-16T10:23:25;-4.70;99.90
28837;DHT22;50669;50.982;11.022;2022-12-16T10:26:22;-4.70;99.90
28837;DHT22;50669;50.982;11.022;2022-12-16T10:29:22;-4.70;99.90
28837;DHT22;50669;50.982;11.022;2022-12-16T10:32:18;-4.70;99.90
28837;DHT22;50669;50.982;11.022;2022-12-16T10:35:21;-4.70;99.90
28837;DHT22;50669;50.982;11.022;2022-12-16T10:38:30;-4.60;99.90
28837;DHT22;50669;50.982;11.022;2022-12-16T10:41:18;-4.50;99.90
28837;DHT22;50669;50.982;11.022;2022-12-16T10:44:09;-4.30;99.90
28837;DHT22;50669;50.982;11.022;2022-12-16T10:46:56;-4.40;99.90
28837;DHT22;50669;50.982;11.022;2022-12-16T10:49:40;-4.50;99.90
28837;DHT22;50669;50.982;11.022;2022-12-16T10:52:24;-4.40;99.90
28837;DHT22;50669;50.982;11.022;2022-12-16T10:55:19;-4.50;99.90
28837;DHT22;50669;50.982;11.022;2022-12-16T11:13:30;-4.80;99.90
28837;DHT22;50669;50.982;11.022;2022-12-16T11:16:27;-4.90;99.90
28837;DHT22;50669;50.982;11.022;2022-12-16T11:19:18;-4.90;99.90
28837;DHT22;50669;50.982;11.022;2022-12-16T11:22:20;-4.70;99.90
28837;DHT22;50669;50.982;11.022;2022-12-16T11:30:52;-4.30;99.90
28837;DHT22;50669;50.982;11.022;2022-12-16T11:33:38;-4.20;99.90
28837;DHT22;50669;50.982;11.022;2022-12-16T11:36:23;-4.10;99.90
28837;DHT22;50669;50.982;11.022;2022-12-16T11:39:14;-3.90;99.90
28837;DHT22;50669;50.982;11.022;2022-12-16T11:41:59;-3.80;99.90
28837;DHT22;50669;50.982;11.022;2022-12-16T11:44:53;-3.70;99.90
28837;DHT22;50669;50.982;11.022;2022-12-16T11:47:57;-3.60;99.90
28837;DHT22;50669;50.982;11.022;2022-12-16T11:50:50;-3.40;99.90
28837;DHT22;50669;50.982;11.022;2022-12-16T11:56:25;-2.90;99.90
28837;DHT22;50669;50.982;11.022;2022-12-16T12:02:20;-2.70;99.90
28837;DHT22;50669;50.982;11.022;2022-12-16T12:05:13;-2.50;99.90
28837;DHT22;50669;50.982;11.022;2022-12-16T12:08:03;-2.50;99.90
28837;DHT22;50669;50.982;11.022;2022-12-16T12:13:59;-2.40;99.90
28837;DHT22;50669;50.982;11.022;2022-12-16T12:22:38;-2.50;99.90
28837;DHT22;50669;50.982;11.022;2022-12-16T12:46:44;-2.00;99.90
28837;DHT22;50669;50.982;11.022;2022-12-16T12:56:34;-2.30;99.90
28837;DHT22;50669;50.982;11.022;2022-12-16T12:59:26;-2.30;99.90
28837;DHT22;50669;50.982;11.022;2022-12-16T13:02:17;-2.30;99.90
28837;DHT22;50669;50.982;11.022;2022-12-16T13:05:04;-2.30;99.90
28837;DHT22;50669;50.982;11.022;2022-12-16T13:07:49;-2.40;99.90
28837;DHT22;50669;50.982;11.022;2022-12-16T13:10:36;-2.50;99.90
28837;DHT22;50669;50.982;11.022;2022-12-16T13:16:10;-2.40;99.90
28837;DHT22;50669;50.982;11.022;2022-12-16T13:22:28;-2.50;99.90
28837;DHT22;50669;50.982;11.022;2022-12-16T13:32:01;-2.60;99.90
28837;DHT22;50669;50.982;11.022;2022-12-16T13:35:18;-2.70;99.90
28837;DHT22;50669;50.982;11.022;2022-12-16T13:38:19;-2.80;99.90
28837;DHT22;50669;50.982;11.022;2022-12-16T13:41:06;-2.80;99.90
28837;DHT22;50669;50.982;11.022;2022-12-16T13:44:10;-2.90;99.90
28837;DHT22;50669;50.982;11.022;2022-12-16T13:46:55;-3.00;99.90
28837;DHT22;50669;50.982;11.022;2022-12-16T13:49:46;-2.90;99.90
28837;DHT22;50669;50.982;11.022;2022-12-16T13:55:34;-2.90;99.90
28837;DHT22;50669;50.982;11.022;2022-12-16T13:58:49;-2.90;99.90
28837;DHT22;50669;50.982;11.022;2022-12-16T14:01:42;-2.90;99.90
28837;DHT22;50669;50.982;11.022;2022-12-16T14:04:38;-3.00;99.90
28837;DHT22;50669;50.982;11.022;2022-12-16T14:07:25;-3.00;99.90
28837;DHT22;50669;50.982;11.022;2022-12-16T14:10:37;-3.00;99.90
28837;DHT22;50669;50.982;11.022;2022-12-16T14:13:39;-3.00;99.90
28837;DHT22;50669;50.982;11.022;2022-12-16T14:16:44;-3.10;99.90
28837;DHT22;50669;50.982;11.022;2022-12-16T14:25:56;-3.20;99.90
28837;DHT22;50669;50.982;11.022;2022-12-16T14:28:41;-3.20;99.90
28837;DHT22;50669;50.982;11.022;2022-12-16T14:31:38;-3.30;99.90
28837;DHT22;50669;50.982;11.022;2022-12-16T14:34:27;-3.30;99.90
28837;DHT22;50669;50.982;11.022;2022-12-16T14:37:22;-3.30;99.90
28837;DHT22;50669;50.982;11.022;2022-12-16T14:40:22;-3.40;99.90
28837;DHT22;50669;50.982;11.022;2022-12-16T14:43:15;-3.40;99.90
28837;DHT22;50669;50.982;11.022;2022-12-16T14:46:00;-3.40;99.90
28837;DHT22;50669;50.982;11.022;2022-12-16T14:48:48;-3.50;99.90
28837;DHT22;50669;50.982;11.022;2022-12-16T14:51:43;-3.60;99.90
28837;DHT22;50669;50.982;11.022;2022-12-16T14:54:35;-3.60;99.90
28837;DHT22;50669;50.982;11.022;2022-12-16T14:57:20;-3.60;99.90
28837;DHT22;50669;50.982;11.022;2022-12-16T15:00:10;-3.70;99.90
28837;DHT22;50669;50.982;11.022;2022-12-16T15:03:19;-3.80;99.90
28837;DHT22;50669;50.982;11.022;2022-12-16T15:06:12;-3.80;99.90
28837;DHT22;50669;50.982;11.022;2022-12-16T15:09:02;-3.80;99.90
28837;DHT22;50669;50.982;11.022;2022-12-16T15:11:49;-3.80;99.90
28837;DHT22;50669;50.982;11.022;2022-12-16T15:14:38;-3.80;99.90
28837;DHT22;50669;50.982;11.022;2022-12-16T15:20:18;-3.90;99.90
28837;DHT22;50669;50.982;11.022;2022-12-16T15:23:03;-4.00;99.90
28837;DHT22;50669;50.982;11.022;2022-12-16T15:25:55;-4.00;99.90
28837;DHT22;50669;50.982;11.022;2022-12-16T15:28:42;-4.00;99.90
28837;DHT22;50669;50.982;11.022;2022-12-16T15:31:34;-4.00;99.90
28837;DHT22;50669;50.982;11.022;2022-12-16T15:37:02;-3.90;99.90
28837;DHT22;50669;50.982;11.022;2022-12-16T15:39:46;-4.00;99.90
28837;DHT22;50669;50.982;11.022;2022-12-16T15:42:32;-4.00;99.90
28837;DHT22;50669;50.982;11.022;2022-12-16T15:45:26;-4.00;99.90
28837;DHT22;50669;50.982;11.022;2022-12-16T15:48:25;-4.10;99.90
28837;DHT22;50669;50.982;11.022;2022-12-16T15:51:31;-4.10;99.90
28837;DHT22;50669;50.982;11.022;2022-12-16T15:54:23;-4.10;99.90
28837;DHT22;50669;50.982;11.022;2022-12-16T15:57:28;-4.20;99.90
28837;DHT22;50669;50.982;11.022;2022-12-16T16:00:26;-4.20;99.90
28837;DHT22;50669;50.982;11.022;2022-12-16T16:03:28;-4.20;99.90
28837;DHT22;50669;50.982;11.022;2022-12-16T16:12:04;-4.30;99.90
28837;DHT22;50669;50.982;11.022;2022-12-16T16:14:48;-4.40;99.90
28837;DHT22;50669;50.982;11.022;2022-12-16T16:17:32;-4.40;99.90
28837;DHT22;50669;50.982;11.022;2022-12-16T16:20:17;-4.50;99.90
28837;DHT22;50669;50.982;11.022;2022-12-16T16:23:02;-4.60;99.90
28837;DHT22;50669;50.982;11.022;2022-12-16T16:25:47;-4.60;99.90
28837;DHT22;50669;50.982;11.022;2022-12-16T16:28:32;-4.60;99.90
28837;DHT22;50669;50.982;11.022;2022-12-16T16:31:16;-4.60;99.90
28837;DHT22;50669;50.982;11.022;2022-12-16T16:34:00;-4.60;99.90
28837;DHT22;50669;50.982;11.022;2022-12-16T16:36:51;-4.70;99.90
28837;DHT22;50669;50.982;11.022;2022-12-16T16:39:35;-4.70;99.90
28837;DHT22;50669;50.982;11.022;2022-12-16T16:42:20;-4.70;99.90
28837;DHT22;50669;50.982;11.022;2022-12-16T16:45:04;-4.80;99.90
28837;DHT22;50669;50.982;11.022;2022-12-16T16:47:49;-4.80;99.90
28837;DHT22;50669;50.982;11.022;2022-12-16T16:50:33;-4.90;99.90
28837;DHT22;50669;50.982;11.022;2022-12-16T16:53:19;-4.90;99.90
28837;DHT22;50669;50.982;11.022;2022-12-16T16:56:08;-4.90;99.90
28837;DHT22;50669;50.982;11.022;2022-12-16T16:58:53;-5.00;99.90
28837;DHT22;50669;50.982;11.022;2022-12-16T17:01:37;-5.00;99.90
28837;DHT22;50669;50.982;11.022;2022-12-16T17:04:21;-5.10;99.90
28837;DHT22;50669;50.982;11.022;2022-12-16T17:07:05;-5.10;99.90
28837;DHT22;50669;50.982;11.022;2022-12-16T17:09:52;-5.10;99.90
28837;DHT22;50669;50.982;11.022;2022-12-16T17:12:36;-5.20;99.90
28837;DHT22;50669;50.982;11.022;2022-12-16T17:15:27;-5.10;99.90
28837;DHT22;50669;50.982;11.022;2022-12-16T17:18:15;-5.20;99.90
28837;DHT22;50669;50.982;11.022;2022-12-16T17:21:00;-5.20;99.90
28837;DHT22;50669;50.982;11.022;2022-12-16T17:23:44;-5.30;99.90
28837;DHT22;50669;50.982;11.022;2022-12-16T17:26:28;-5.20;99.90
28837;DHT22;50669;50.982;11.022;2022-12-16T17:29:23;-5.30;99.90
28837;DHT22;50669;50.982;11.022;2022-12-16T17:32:08;-5.30;99.90
28837;DHT22;50669;50.982;11.022;2022-12-16T17:34:52;-5.30;99.90
28837;DHT22;50669;50.982;11.022;2022-12-16T17:37:36;-5.40;99.90
28837;DHT22;50669;50.982;11.022;2022-12-16T17:40:20;-5.40;99.90
28837;DHT22;50669;50.982;11.022;2022-12-16T17:43:05;-5.40;99.90
28837;DHT22;50669;50.982;11.022;2022-12-16T17:45:57;-5.40;99.90
28837;DHT22;50669;50.982;11.022;2022-12-16T17:48:42;-5.50;99.90
28837;DHT22;50669;50.982;11.022;2022-12-16T17:51:29;-5.50;99.90
28837;DHT22;50669;50.982;11.022;2022-12-16T17:54:13;-5.50;99.90
28837;DHT22;50669;50.982;11.022;2022-12-16T17:56:57;-5.50;99.90
28837;DHT22;50669;50.982;11.022;2022-12-16T17:59:42;-5.60;99.90
28837;DHT22;50669;50.982;11.022;2022-12-16T18:02:26;-5.60;99.90
28837;DHT22;50669;50.982;11.022;2022-12-16T18:05:10;-5.70;99.90
28837;DHT22;50669;50.982;11.022;2022-12-16T18:07:54;-5.70;99.90
28837;DHT22;50669;50.982;11.022;2022-12-16T18:10:38;-5.80;99.90
28837;DHT22;50669;50.982;11.022;2022-12-16T18:13:22;-5.80;99.90
28837;DHT22;50669;50.982;11.022;2022-12-16T18:16:09;-5.80;99.90
28837;DHT22;50669;50.982;11.022;2022-12-16T18:18:53;-5.80;99.90
28837;DHT22;50669;50.982;11.022;2022-12-16T18:21:38;-5.70;99.90
28837;DHT22;50669;50.982;11.022;2022-12-16T18:24:22;-5.70;99.90
28837;DHT22;50669;50.982;11.022;2022-12-16T18:27:06;-5.70;99.90
28837;DHT22;50669;50.982;11.022;2022-12-16T18:29:52;-5.70;99.90
28837;DHT22;50669;50.982;11.022;2022-12-16T18:32:36;-5.70;99.90
28837;DHT22;50669;50.982;11.022;2022-12-16T18:35:20;-5.60;99.90
28837;DHT22;50669;50.982;11.022;2022-12-16T18:38:04;-5.60;99.90
28837;DHT22;50669;50.982;11.022;2022-12-16T18:40:48;-5.60;99.90
28837;DHT22;50669;50.982;11.022;2022-12-16T18:43:32;-5.50;99.90
28837;DHT22;50669;50.982;11.022;2022-12-16T18:46:19;-5.40;99.90
28837;DHT22;50669;50.982;11.022;2022-12-16T18:49:03;-5.40;99.90
28837;DHT22;50669;50.982;11.022;2022-12-16T18:51:50;-5.40;99.90
28837;DHT22;50669;50.982;11.022;2022-12-16T18:54:34;-5.40;99.90
28837;DHT22;50669;50.982;11.022;2022-12-16T18:57:18;-5.40;99.90
28837;DHT22;50669;50.982;11.022;2022-12-16T19:00:02;-5.40;99.90
28837;DHT22;50669;50.982;11.022;2022-12-16T19:02:46;-5.40;99.90
28837;DHT22;50669;50.982;11.022;2022-12-16T19:05:33;-5.30;99.90
28837;DHT22;50669;50.982;11.022;2022-12-16T19:08:17;-5.30;99.90